createdAt,value
2023-12-30T00:00:44.000Z,409.94793701171875
2023-12-30T00:01:46.000Z,410.6561584472656
2023-12-30T00:02:48.000Z,411.328857421875
2023-12-30T00:03:50.000Z,410.2488708496094
2023-12-30T00:04:52.000Z,412.009765625
2023-12-30T00:05:55.000Z,412.1954345703125
2023-12-30T00:06:57.000Z,413.3870849609375
2023-12-30T00:07:59.000Z,414.795166015625
2023-12-30T00:09:01.000Z,414.6878662109375
2023-12-30T00:10:03.000Z,413.188720703125
2023-12-30T00:11:05.000Z,412.9980773925781
2023-12-30T00:12:07.000Z,409.4294128417969
2023-12-30T00:13:10.000Z,408.4040832519531
2023-12-30T00:14:12.000Z,406.9421081542969
2023-12-30T00:15:14.000Z,407.87890625
2023-12-30T00:16:16.000Z,410.5346984863281
2023-12-30T00:17:18.000Z,413.5918273925781
2023-12-30T00:18:20.000Z,412.9102783203125
2023-12-30T00:19:22.000Z,414.404052734375
2023-12-30T00:20:25.000Z,415.55810546875
2023-12-30T00:21:27.000Z,415.24273681640625
2023-12-30T00:22:29.000Z,413.9176025390625
2023-12-30T00:23:31.000Z,415.8990173339844
2023-12-30T00:24:33.000Z,414.9129638671875
2023-12-30T00:25:35.000Z,412.5630187988281
2023-12-30T00:26:38.000Z,411.2887878417969
2023-12-30T00:27:40.000Z,410.65478515625
2023-12-30T00:28:47.000Z,414.19769287109375
2023-12-30T00:29:49.000Z,414.9235534667969
2023-12-30T00:30:51.000Z,413.3546447753906
2023-12-30T00:31:53.000Z,412.8360900878906
2023-12-30T00:32:56.000Z,415.06915283203125
2023-12-30T00:33:58.000Z,413.6056823730469
2023-12-30T00:35:00.000Z,415.5951232910156
2023-12-30T00:36:02.000Z,415.1438293457031
2023-12-30T00:37:04.000Z,417.76275634765625
2023-12-30T00:38:06.000Z,416.0662841796875
2023-12-30T00:39:08.000Z,418.2314758300781
2023-12-30T00:40:11.000Z,417.5090637207031
2023-12-30T00:41:13.000Z,417.5296630859375
2023-12-30T00:42:15.000Z,416.60687255859375
2023-12-30T00:43:17.000Z,416.5675048828125
2023-12-30T00:44:19.000Z,417.5338439941406
2023-12-30T00:45:21.000Z,417.6539306640625
2023-12-30T00:46:23.000Z,414.6682434082031
2023-12-30T00:47:26.000Z,414.3524475097656
2023-12-30T00:48:28.000Z,414.9510192871094
2023-12-30T00:49:30.000Z,415.05499267578125
2023-12-30T00:50:32.000Z,414.6946105957031
2023-12-30T00:51:34.000Z,413.67413330078125
2023-12-30T00:52:36.000Z,415.1860656738281
2023-12-30T00:53:39.000Z,415.73992919921875
2023-12-30T00:54:41.000Z,413.632568359375
2023-12-30T00:55:43.000Z,413.2965087890625
2023-12-30T00:56:45.000Z,413.1101379394531
2023-12-30T00:57:47.000Z,413.6207275390625
2023-12-30T00:58:49.000Z,411.2978515625
2023-12-30T00:59:56.000Z,411.7938232421875
2023-12-30T01:00:58.000Z,415.1596374511719
2023-12-30T01:02:01.000Z,415.0765380859375
2023-12-30T01:03:03.000Z,414.00506591796875
2023-12-30T01:04:05.000Z,413.95391845703125
2023-12-30T01:05:07.000Z,413.80303955078125
2023-12-30T01:06:09.000Z,413.9052734375
2023-12-30T01:07:11.000Z,414.93731689453125
2023-12-30T01:08:14.000Z,413.8965148925781
2023-12-30T01:09:16.000Z,415.7352600097656
2023-12-30T01:10:18.000Z,415.5467529296875
2023-12-30T01:11:20.000Z,415.01055908203125
2023-12-30T01:12:22.000Z,417.0766906738281
2023-12-30T01:13:24.000Z,415.27716064453125
2023-12-30T01:14:26.000Z,415.2228088378906
2023-12-30T01:15:29.000Z,417.3799743652344
2023-12-30T01:16:31.000Z,416.5256042480469
2023-12-30T01:17:33.000Z,416.22650146484375
2023-12-30T01:18:35.000Z,416.64031982421875
2023-12-30T01:19:37.000Z,417.66998291015625
2023-12-30T01:20:39.000Z,415.39093017578125
2023-12-30T01:21:42.000Z,416.3162841796875
2023-12-30T01:22:49.000Z,416.0702819824219
2023-12-30T01:23:51.000Z,416.1188049316406
2023-12-30T01:24:58.000Z,415.02581787109375
2023-12-30T01:26:00.000Z,413.3490905761719
2023-12-30T01:27:02.000Z,414.9491882324219
2023-12-30T01:28:04.000Z,415.11578369140625
2023-12-30T01:29:06.000Z,415.44482421875
2023-12-30T01:30:09.000Z,416.47698974609375
2023-12-30T01:31:11.000Z,418.2838439941406
2023-12-30T01:32:13.000Z,417.0929260253906
2023-12-30T01:33:15.000Z,418.3909606933594
2023-12-30T01:34:17.000Z,418.0613708496094
2023-12-30T01:35:19.000Z,419.1678161621094
2023-12-30T01:36:22.000Z,419.61236572265625
2023-12-30T01:37:24.000Z,418.2986755371094
2023-12-30T01:38:26.000Z,417.0980529785156
2023-12-30T01:39:28.000Z,417.1250305175781
2023-12-30T01:40:30.000Z,417.1362609863281
2023-12-30T01:41:32.000Z,417.24505615234375
2023-12-30T01:42:35.000Z,416.478271484375
2023-12-30T01:43:37.000Z,418.5122985839844
2023-12-30T01:44:39.000Z,418.755615234375
2023-12-30T01:45:41.000Z,417.91986083984375
2023-12-30T01:46:43.000Z,417.04730224609375
2023-12-30T01:47:45.000Z,417.6890563964844
2023-12-30T01:48:47.000Z,416.97332763671875
2023-12-30T01:49:50.000Z,417.56463623046875
2023-12-30T01:50:52.000Z,417.50225830078125
2023-12-30T01:51:54.000Z,414.5226135253906
2023-12-30T01:52:56.000Z,417.08392333984375
2023-12-30T01:53:58.000Z,416.13031005859375
2023-12-30T01:55:00.000Z,415.0079650878906
2023-12-30T01:56:03.000Z,414.68145751953125
2023-12-30T01:57:05.000Z,414.4205627441406
2023-12-30T01:58:07.000Z,413.7519226074219
2023-12-30T01:59:09.000Z,413.8484802246094
2023-12-30T02:00:11.000Z,416.944580078125
2023-12-30T02:01:13.000Z,418.8560791015625
2023-12-30T02:02:15.000Z,419.0355224609375
2023-12-30T02:03:18.000Z,417.93829345703125
2023-12-30T02:04:20.000Z,419.0742492675781
2023-12-30T02:05:22.000Z,417.3636169433594
2023-12-30T02:06:24.000Z,417.6302490234375
2023-12-30T02:07:26.000Z,421.0722961425781
2023-12-30T02:08:28.000Z,419.73419189453125
2023-12-30T02:09:31.000Z,418.9106750488281
2023-12-30T02:10:33.000Z,420.0288391113281
2023-12-30T02:11:35.000Z,418.51434326171875
2023-12-30T02:12:37.000Z,414.3505554199219
2023-12-30T02:13:39.000Z,414.6746520996094
2023-12-30T02:14:41.000Z,414.1135559082031
2023-12-30T02:15:44.000Z,413.859619140625
2023-12-30T02:16:46.000Z,413.4535827636719
2023-12-30T02:17:48.000Z,414.10540771484375
2023-12-30T02:18:50.000Z,411.9556884765625
2023-12-30T02:19:52.000Z,413.1272888183594
2023-12-30T02:20:54.000Z,413.98101806640625
2023-12-30T02:21:56.000Z,414.5027770996094
2023-12-30T02:22:59.000Z,415.1735534667969
2023-12-30T02:24:01.000Z,414.6048583984375
2023-12-30T02:25:03.000Z,412.77471923828125
2023-12-30T02:26:05.000Z,411.8785400390625
2023-12-30T02:27:07.000Z,411.79656982421875
2023-12-30T02:28:09.000Z,413.36260986328125
2023-12-30T02:29:12.000Z,414.8067932128906
2023-12-30T02:30:14.000Z,415.3971252441406
2023-12-30T02:31:16.000Z,416.69427490234375
2023-12-30T02:32:18.000Z,415.93731689453125
2023-12-30T02:33:20.000Z,414.70184326171875
2023-12-30T02:34:22.000Z,413.8671569824219
2023-12-30T02:35:25.000Z,414.2971496582031
2023-12-30T02:36:27.000Z,412.9796447753906
2023-12-30T02:37:29.000Z,413.8623352050781
2023-12-30T02:38:31.000Z,412.4974060058594
2023-12-30T02:39:33.000Z,410.8976745605469
2023-12-30T02:40:35.000Z,412.716552734375
2023-12-30T02:41:37.000Z,413.4482116699219
2023-12-30T02:42:40.000Z,415.9399719238281
2023-12-30T02:43:42.000Z,419.13665771484375
2023-12-30T02:44:44.000Z,419.2235107421875
2023-12-30T02:45:46.000Z,417.82159423828125
2023-12-30T02:46:48.000Z,415.15789794921875
2023-12-30T02:47:50.000Z,417.6299743652344
2023-12-30T02:48:52.000Z,418.6943054199219
2023-12-30T02:49:55.000Z,419.7276611328125
2023-12-30T02:50:57.000Z,419.3152770996094
2023-12-30T02:51:59.000Z,419.3606262207031
2023-12-30T02:53:01.000Z,419.69085693359375
2023-12-30T02:54:03.000Z,420.6453552246094
2023-12-30T02:55:05.000Z,420.0844421386719
2023-12-30T02:56:08.000Z,420.698486328125
2023-12-30T02:57:10.000Z,419.3311767578125
2023-12-30T02:58:12.000Z,419.5661926269531
2023-12-30T02:59:14.000Z,418.8518981933594
2023-12-30T03:00:16.000Z,417.82489013671875
2023-12-30T03:01:18.000Z,418.997314453125
2023-12-30T03:02:21.000Z,420.05902099609375
2023-12-30T03:03:23.000Z,419.3797912597656
2023-12-30T03:04:25.000Z,419.8203430175781
2023-12-30T03:05:27.000Z,418.64422607421875
2023-12-30T03:06:29.000Z,417.4766540527344
2023-12-30T03:07:31.000Z,418.72601318359375
2023-12-30T03:08:33.000Z,419.36798095703125
2023-12-30T03:09:36.000Z,420.5826110839844
2023-12-30T03:10:38.000Z,420.3158874511719
2023-12-30T03:11:40.000Z,418.9361877441406
2023-12-30T03:12:42.000Z,417.72015380859375
2023-12-30T03:13:44.000Z,419.1288757324219
2023-12-30T03:14:46.000Z,417.53887939453125
2023-12-30T03:15:48.000Z,418.91888427734375
2023-12-30T03:16:56.000Z,419.445068359375
2023-12-30T03:17:58.000Z,419.7340087890625
2023-12-30T03:19:00.000Z,420.5075988769531
2023-12-30T03:20:02.000Z,421.0736389160156
2023-12-30T03:21:04.000Z,422.64227294921875
2023-12-30T03:22:06.000Z,421.88446044921875
2023-12-30T03:23:09.000Z,421.47296142578125
2023-12-30T03:24:11.000Z,421.34271240234375
2023-12-30T03:25:13.000Z,418.1628723144531
2023-12-30T03:26:15.000Z,416.9866027832031
2023-12-30T03:27:17.000Z,416.7664794921875
2023-12-30T03:28:19.000Z,416.680419921875
2023-12-30T03:29:22.000Z,415.7994689941406
2023-12-30T03:30:24.000Z,415.0498352050781
2023-12-30T03:31:26.000Z,415.53656005859375
2023-12-30T03:32:28.000Z,415.0019836425781
2023-12-30T03:33:30.000Z,415.0603332519531
2023-12-30T03:34:33.000Z,414.7212829589844
2023-12-30T03:35:35.000Z,413.03485107421875
2023-12-30T03:36:37.000Z,414.37054443359375
2023-12-30T03:37:39.000Z,416.1885070800781
2023-12-30T03:38:41.000Z,415.81298828125
2023-12-30T03:39:43.000Z,416.3963317871094
2023-12-30T03:40:46.000Z,412.1971740722656
2023-12-30T03:41:48.000Z,411.5689392089844
2023-12-30T03:42:50.000Z,413.3701171875
2023-12-30T03:43:52.000Z,414.9627685546875
2023-12-30T03:44:54.000Z,415.3494873046875
2023-12-30T03:45:56.000Z,415.32110595703125
2023-12-30T03:46:58.000Z,415.9650573730469
2023-12-30T03:48:01.000Z,413.3353576660156
2023-12-30T03:49:03.000Z,414.7726135253906
2023-12-30T03:50:05.000Z,415.4864807128906
2023-12-30T03:51:07.000Z,413.3467102050781
2023-12-30T03:52:09.000Z,412.2851257324219
2023-12-30T03:53:11.000Z,412.80474853515625
2023-12-30T03:54:14.000Z,413.01129150390625
2023-12-30T03:55:16.000Z,412.3802185058594
2023-12-30T03:56:18.000Z,409.6409606933594
2023-12-30T03:57:20.000Z,411.13623046875
2023-12-30T03:58:22.000Z,411.74359130859375
2023-12-30T03:59:25.000Z,412.0133972167969
2023-12-30T04:00:27.000Z,411.3341979980469
2023-12-30T04:01:29.000Z,413.7722473144531
2023-12-30T04:02:31.000Z,413.57537841796875
2023-12-30T04:03:33.000Z,412.3742980957031
2023-12-30T04:04:35.000Z,412.8353271484375
2023-12-30T04:05:38.000Z,414.1485595703125
2023-12-30T04:06:40.000Z,414.9542236328125
2023-12-30T04:07:42.000Z,417.1026611328125
2023-12-30T04:08:44.000Z,416.0753173828125
2023-12-30T04:09:46.000Z,416.03094482421875
2023-12-30T04:10:48.000Z,415.81097412109375
2023-12-30T04:11:51.000Z,415.7921447753906
2023-12-30T04:12:58.000Z,416.06219482421875
2023-12-30T04:14:00.000Z,417.1369323730469
2023-12-30T04:15:02.000Z,414.6240234375
2023-12-30T04:16:04.000Z,413.7955627441406
2023-12-30T04:17:06.000Z,414.8544616699219
2023-12-30T04:18:08.000Z,413.8050231933594
2023-12-30T04:19:11.000Z,415.02752685546875
2023-12-30T04:20:13.000Z,412.8424377441406
2023-12-30T04:21:15.000Z,415.5871276855469
2023-12-30T04:22:17.000Z,414.35272216796875
2023-12-30T04:23:19.000Z,414.3889465332031
2023-12-30T04:24:21.000Z,415.9588928222656
2023-12-30T04:25:23.000Z,418.0877685546875
2023-12-30T04:26:26.000Z,418.8418273925781
2023-12-30T04:27:28.000Z,420.2103576660156
2023-12-30T04:28:30.000Z,420.1673889160156
2023-12-30T04:29:32.000Z,419.03802490234375
2023-12-30T04:30:34.000Z,416.7774658203125
2023-12-30T04:31:36.000Z,418.3629455566406
2023-12-30T04:32:38.000Z,416.2723693847656
2023-12-30T04:33:41.000Z,416.7805480957031
2023-12-30T04:34:43.000Z,414.7481994628906
2023-12-30T04:35:45.000Z,413.5843505859375
2023-12-30T04:36:48.000Z,411.19097900390625
2023-12-30T04:37:50.000Z,409.48773193359375
2023-12-30T04:38:53.000Z,408.828369140625
2023-12-30T04:39:55.000Z,409.2864074707031
2023-12-30T04:40:57.000Z,408.66497802734375
2023-12-30T04:41:59.000Z,409.06756591796875
2023-12-30T04:43:01.000Z,410.5287170410156
2023-12-30T04:44:03.000Z,411.33062744140625
2023-12-30T04:45:06.000Z,413.09735107421875
2023-12-30T04:46:08.000Z,412.8748474121094
2023-12-30T04:47:10.000Z,413.3559265136719
2023-12-30T04:48:12.000Z,414.106201171875
2023-12-30T04:49:14.000Z,415.5472412109375
2023-12-30T04:50:16.000Z,417.0113525390625
2023-12-30T04:51:19.000Z,416.3580322265625
2023-12-30T04:52:21.000Z,415.2522277832031
2023-12-30T04:53:23.000Z,415.8859558105469
2023-12-30T04:54:25.000Z,416.6680603027344
2023-12-30T04:55:27.000Z,417.3068542480469
2023-12-30T04:56:29.000Z,418.2627868652344
2023-12-30T04:57:31.000Z,417.8920593261719
2023-12-30T04:58:34.000Z,417.9673156738281
2023-12-30T04:59:36.000Z,417.0465393066406
2023-12-30T05:00:38.000Z,414.9083557128906
2023-12-30T05:01:40.000Z,413.7206115722656
2023-12-30T05:02:42.000Z,413.4443054199219
2023-12-30T05:03:44.000Z,413.80450439453125
2023-12-30T05:04:46.000Z,415.29443359375
2023-12-30T05:05:49.000Z,415.9894104003906
2023-12-30T05:06:51.000Z,412.04058837890625
2023-12-30T05:07:53.000Z,412.4009094238281
2023-12-30T05:08:55.000Z,412.4842834472656
2023-12-30T05:09:57.000Z,412.49444580078125
2023-12-30T05:10:59.000Z,412.63531494140625
2023-12-30T05:12:02.000Z,412.6272888183594
2023-12-30T05:13:04.000Z,412.3874816894531
2023-12-30T05:14:06.000Z,413.76287841796875
2023-12-30T05:15:09.000Z,415.6582336425781
2023-12-30T05:16:11.000Z,416.0108337402344
2023-12-30T05:17:13.000Z,415.6932678222656
2023-12-30T05:18:16.000Z,413.6832275390625
2023-12-30T05:19:18.000Z,414.3347473144531
2023-12-30T05:20:20.000Z,413.428955078125
2023-12-30T05:21:22.000Z,414.002685546875
2023-12-30T05:22:24.000Z,414.7640075683594
2023-12-30T05:23:32.000Z,415.2940673828125
2023-12-30T05:24:34.000Z,416.4869079589844
2023-12-30T05:25:36.000Z,415.8622741699219
2023-12-30T05:26:38.000Z,418.2812194824219
2023-12-30T05:27:40.000Z,419.4440002441406
2023-12-30T05:28:42.000Z,421.42034912109375
2023-12-30T05:29:45.000Z,420.2711486816406
2023-12-30T05:30:47.000Z,418.3194580078125
2023-12-30T05:31:49.000Z,419.1656494140625
2023-12-30T05:32:51.000Z,417.5649719238281
2023-12-30T05:33:53.000Z,418.6399230957031
2023-12-30T05:34:55.000Z,416.013427734375
2023-12-30T05:35:58.000Z,417.5035095214844
2023-12-30T05:37:00.000Z,416.8447265625
2023-12-30T05:38:02.000Z,413.64984130859375
2023-12-30T05:39:04.000Z,411.1424255371094
2023-12-30T05:40:06.000Z,412.6992492675781
2023-12-30T05:41:08.000Z,411.77862548828125
2023-12-30T05:42:11.000Z,413.303466796875
2023-12-30T05:43:13.000Z,412.89105224609375
2023-12-30T05:44:15.000Z,413.35699462890625
2023-12-30T05:45:17.000Z,413.81854248046875
2023-12-30T05:46:24.000Z,414.8426818847656
2023-12-30T05:47:26.000Z,415.13189697265625
2023-12-30T05:48:28.000Z,412.47650146484375
2023-12-30T05:49:31.000Z,414.88372802734375
2023-12-30T05:50:33.000Z,416.8670959472656
2023-12-30T05:51:35.000Z,419.6418762207031
2023-12-30T05:52:37.000Z,419.76458740234375
2023-12-30T05:53:39.000Z,418.3857421875
2023-12-30T05:54:41.000Z,417.5150451660156
2023-12-30T05:55:43.000Z,417.7762145996094
2023-12-30T05:56:46.000Z,418.6025085449219
2023-12-30T05:57:48.000Z,418.31182861328125
2023-12-30T05:58:50.000Z,418.65313720703125
2023-12-30T05:59:52.000Z,420.01171875
2023-12-30T06:00:54.000Z,420.23004150390625
2023-12-30T06:01:56.000Z,421.3842468261719
2023-12-30T06:02:59.000Z,420.2248229980469
2023-12-30T06:04:01.000Z,418.3712463378906
2023-12-30T06:05:03.000Z,419.5570983886719
2023-12-30T06:06:05.000Z,421.2528991699219
2023-12-30T06:07:07.000Z,419.7961120605469
2023-12-30T06:08:09.000Z,419.4949951171875
2023-12-30T06:09:11.000Z,420.7331848144531
2023-12-30T06:10:14.000Z,418.779296875
2023-12-30T06:11:16.000Z,417.2221984863281
2023-12-30T06:12:18.000Z,415.02001953125
2023-12-30T06:13:20.000Z,415.9822998046875
2023-12-30T06:14:22.000Z,417.02301025390625
2023-12-30T06:15:24.000Z,414.9598693847656
2023-12-30T06:16:26.000Z,413.4137268066406
2023-12-30T06:17:29.000Z,415.78863525390625
2023-12-30T06:18:31.000Z,416.06640625
2023-12-30T06:19:33.000Z,416.1792907714844
2023-12-30T06:20:35.000Z,417.63671875
2023-12-30T06:21:37.000Z,419.4712829589844
2023-12-30T06:22:39.000Z,418.4428405761719
2023-12-30T06:23:41.000Z,415.3236389160156
2023-12-30T06:24:44.000Z,414.97052001953125
2023-12-30T06:25:46.000Z,417.65789794921875
2023-12-30T06:26:48.000Z,417.0974426269531
2023-12-30T06:27:50.000Z,416.68408203125
2023-12-30T06:28:52.000Z,417.35040283203125
2023-12-30T06:29:54.000Z,417.52783203125
2023-12-30T06:30:57.000Z,417.1246337890625
2023-12-30T06:31:59.000Z,418.6463317871094
2023-12-30T06:33:01.000Z,418.623779296875
2023-12-30T06:34:03.000Z,419.2213439941406
2023-12-30T06:35:05.000Z,420.0167541503906
2023-12-30T06:36:07.000Z,420.7074890136719
2023-12-30T06:37:10.000Z,419.3598327636719
2023-12-30T06:38:12.000Z,418.39215087890625
2023-12-30T06:39:14.000Z,419.1676940917969
2023-12-30T06:40:16.000Z,417.0852355957031
2023-12-30T06:41:18.000Z,417.13568115234375
2023-12-30T06:42:20.000Z,417.4685974121094
2023-12-30T06:43:22.000Z,419.4081726074219
2023-12-30T06:44:25.000Z,416.6210632324219
2023-12-30T06:45:27.000Z,414.6046447753906
2023-12-30T06:46:29.000Z,414.7206726074219
2023-12-30T06:47:31.000Z,414.6685485839844
2023-12-30T06:48:33.000Z,415.8719482421875
2023-12-30T06:49:35.000Z,415.5126647949219
2023-12-30T06:50:37.000Z,416.6971740722656
2023-12-30T06:51:40.000Z,419.682373046875
2023-12-30T06:52:42.000Z,421.0716857910156
2023-12-30T06:53:44.000Z,421.51043701171875
2023-12-30T06:54:46.000Z,422.6540832519531
2023-12-30T06:55:48.000Z,421.6691589355469
2023-12-30T06:56:50.000Z,421.6972961425781
2023-12-30T06:57:52.000Z,421.9368591308594
2023-12-30T06:58:55.000Z,418.451416015625
2023-12-30T06:59:57.000Z,417.5072326660156
2023-12-30T07:00:59.000Z,418.3570861816406
2023-12-30T07:02:01.000Z,419.655029296875
2023-12-30T07:03:03.000Z,419.1616516113281
2023-12-30T07:04:05.000Z,418.598388671875
2023-12-30T07:05:07.000Z,419.238525390625
2023-12-30T07:06:10.000Z,418.63446044921875
2023-12-30T07:07:12.000Z,416.4934387207031
2023-12-30T07:08:14.000Z,416.6908874511719
2023-12-30T07:09:16.000Z,416.2869873046875
2023-12-30T07:10:18.000Z,417.28228759765625
2023-12-30T07:11:20.000Z,419.0926208496094
2023-12-30T07:12:23.000Z,418.4303894042969
2023-12-30T07:13:25.000Z,417.25238037109375
2023-12-30T07:14:27.000Z,416.5516052246094
2023-12-30T07:15:29.000Z,416.7561950683594
2023-12-30T07:16:31.000Z,415.94915771484375
2023-12-30T07:17:38.000Z,414.7484130859375
2023-12-30T07:18:40.000Z,412.1572265625
2023-12-30T07:19:43.000Z,413.4959411621094
2023-12-30T07:20:45.000Z,414.2946472167969
2023-12-30T07:21:47.000Z,414.34991455078125
2023-12-30T07:22:49.000Z,415.0943298339844
2023-12-30T07:23:51.000Z,413.1520080566406
2023-12-30T07:24:53.000Z,411.3000183105469
2023-12-30T07:25:56.000Z,410.865234375
2023-12-30T07:26:58.000Z,411.50311279296875
2023-12-30T07:28:00.000Z,413.3743591308594
2023-12-30T07:29:02.000Z,413.0092468261719
2023-12-30T07:30:04.000Z,413.8804931640625
2023-12-30T07:31:11.000Z,414.5025634765625
2023-12-30T07:32:13.000Z,414.1290588378906
2023-12-30T07:33:16.000Z,414.5832214355469
2023-12-30T07:34:18.000Z,412.841064453125
2023-12-30T07:35:20.000Z,412.6954650878906
2023-12-30T07:36:22.000Z,416.1012878417969
2023-12-30T07:37:24.000Z,415.7602233886719
2023-12-30T07:38:26.000Z,415.3568420410156
2023-12-30T07:39:28.000Z,415.8591003417969
2023-12-30T07:40:31.000Z,414.707275390625
2023-12-30T07:41:33.000Z,415.0128173828125
2023-12-30T07:42:35.000Z,414.9381408691406
2023-12-30T07:43:37.000Z,414.1900939941406
2023-12-30T07:44:39.000Z,415.7539978027344
2023-12-30T07:45:41.000Z,414.00653076171875
2023-12-30T07:46:43.000Z,415.24334716796875
2023-12-30T07:47:46.000Z,413.3553771972656
2023-12-30T07:48:48.000Z,413.6972351074219
2023-12-30T07:49:50.000Z,416.8681640625
2023-12-30T07:50:52.000Z,418.1550598144531
2023-12-30T07:51:54.000Z,417.8634948730469
2023-12-30T07:52:56.000Z,415.7305603027344
2023-12-30T07:53:59.000Z,417.6805419921875
2023-12-30T07:55:01.000Z,416.93536376953125
2023-12-30T07:56:03.000Z,416.4630432128906
2023-12-30T07:57:05.000Z,415.7493591308594
2023-12-30T07:58:07.000Z,415.5411071777344
2023-12-30T07:59:09.000Z,414.39703369140625
2023-12-30T08:00:11.000Z,413.0674743652344
2023-12-30T08:01:14.000Z,414.5480041503906
2023-12-30T08:02:16.000Z,413.85321044921875
2023-12-30T08:03:18.000Z,412.16839599609375
2023-12-30T08:04:20.000Z,411.2046203613281
2023-12-30T08:05:22.000Z,410.98492431640625
2023-12-30T08:06:24.000Z,409.752685546875
2023-12-30T08:07:27.000Z,412.0769348144531
2023-12-30T08:08:29.000Z,409.8067932128906
2023-12-30T08:09:31.000Z,410.404541015625
2023-12-30T08:10:33.000Z,409.3395080566406
2023-12-30T08:11:35.000Z,408.6785583496094
2023-12-30T08:12:37.000Z,409.8132019042969
2023-12-30T08:13:40.000Z,411.1122741699219
2023-12-30T08:14:42.000Z,411.57525634765625
2023-12-30T08:15:44.000Z,412.4447326660156
2023-12-30T08:16:46.000Z,412.5093078613281
2023-12-30T08:17:48.000Z,410.321533203125
2023-12-30T08:18:50.000Z,410.7884521484375
2023-12-30T08:19:53.000Z,411.748291015625
2023-12-30T08:20:55.000Z,413.6078186035156
2023-12-30T08:21:57.000Z,414.31585693359375
2023-12-30T08:22:59.000Z,413.0467834472656
2023-12-30T08:24:01.000Z,413.9107666015625
2023-12-30T08:25:03.000Z,413.46002197265625
2023-12-30T08:26:05.000Z,413.8435974121094
2023-12-30T08:27:08.000Z,413.646484375
2023-12-30T08:28:10.000Z,411.7850036621094
2023-12-30T08:29:12.000Z,413.79107666015625
2023-12-30T08:30:14.000Z,412.9724426269531
2023-12-30T08:31:16.000Z,411.927490234375
2023-12-30T08:32:18.000Z,412.9121398925781
2023-12-30T08:33:21.000Z,412.5440979003906
2023-12-30T08:34:23.000Z,413.5402526855469
2023-12-30T08:35:30.000Z,413.6231994628906
2023-12-30T08:36:32.000Z,412.7926940917969
2023-12-30T08:37:34.000Z,412.6905822753906
2023-12-30T08:38:36.000Z,412.1625061035156
2023-12-30T08:39:38.000Z,412.3709411621094
2023-12-30T08:40:41.000Z,414.78680419921875
2023-12-30T08:41:43.000Z,417.0015869140625
2023-12-30T08:42:45.000Z,416.8996276855469
2023-12-30T08:43:47.000Z,414.9117431640625
2023-12-30T08:44:49.000Z,415.5865478515625
2023-12-30T08:45:51.000Z,413.8513488769531
2023-12-30T08:46:54.000Z,414.58331298828125
2023-12-30T08:47:56.000Z,416.6169738769531
2023-12-30T08:48:58.000Z,418.255859375
2023-12-30T08:50:00.000Z,418.5026550292969
2023-12-30T08:51:02.000Z,420.4696044921875
2023-12-30T08:52:05.000Z,420.0323791503906
2023-12-30T08:53:12.000Z,419.9785461425781
2023-12-30T08:54:14.000Z,419.2442626953125
2023-12-30T08:55:16.000Z,417.1766357421875
2023-12-30T08:56:18.000Z,415.9544982910156
2023-12-30T08:57:20.000Z,415.24908447265625
2023-12-30T08:58:23.000Z,414.21435546875
2023-12-30T08:59:25.000Z,414.5863952636719
2023-12-30T09:00:27.000Z,412.2404479980469
2023-12-30T09:01:29.000Z,411.1207275390625
2023-12-30T09:02:31.000Z,410.73504638671875
2023-12-30T09:03:33.000Z,412.5350646972656
2023-12-30T09:04:36.000Z,414.6083679199219
2023-12-30T09:05:38.000Z,417.6131591796875
2023-12-30T09:06:40.000Z,414.3003845214844
2023-12-30T09:07:42.000Z,416.30841064453125
2023-12-30T09:08:44.000Z,417.8199157714844
2023-12-30T09:09:46.000Z,417.31201171875
2023-12-30T09:10:48.000Z,416.01239013671875
2023-12-30T09:11:51.000Z,416.1058044433594
2023-12-30T09:12:53.000Z,416.02813720703125
2023-12-30T09:13:55.000Z,412.97998046875
2023-12-30T09:14:57.000Z,411.3117980957031
2023-12-30T09:15:59.000Z,410.7072448730469
2023-12-30T09:17:02.000Z,410.7667236328125
2023-12-30T09:18:04.000Z,411.7637634277344
2023-12-30T09:19:06.000Z,411.716796875
2023-12-30T09:20:08.000Z,412.7371826171875
2023-12-30T09:21:10.000Z,412.9051818847656
2023-12-30T09:22:12.000Z,414.3148193359375
2023-12-30T09:23:14.000Z,413.4928283691406
2023-12-30T09:24:17.000Z,411.92926025390625
2023-12-30T09:25:19.000Z,412.84149169921875
2023-12-30T09:26:21.000Z,413.3253479003906
2023-12-30T09:27:23.000Z,415.6091003417969
2023-12-30T09:28:25.000Z,416.6101379394531
2023-12-30T09:29:27.000Z,418.5022277832031
2023-12-30T09:30:30.000Z,422.05859375
2023-12-30T09:31:32.000Z,422.7181396484375
2023-12-30T09:32:34.000Z,421.4530334472656
2023-12-30T09:33:36.000Z,424.71630859375
2023-12-30T09:34:38.000Z,421.63604736328125
2023-12-30T09:35:40.000Z,418.2517395019531
2023-12-30T09:36:43.000Z,417.9740905761719
2023-12-30T09:37:45.000Z,416.9855651855469